createdAt,value
2023-02-19T00:01:06.921Z,10.70
2023-02-19T00:03:33.349Z,10.63
2023-02-19T00:06:01.166Z,10.61
2023-02-19T00:08:28.962Z,10.62
2023-02-19T00:10:55.304Z,10.61
2023-02-19T00:13:22.974Z,10.70
2023-02-19T00:15:49.285Z,10.68
2023-02-19T00:18:15.634Z,10.61
2023-02-19T00:20:41.919Z,10.61
2023-02-19T00:23:08.219Z,10.61
2023-02-19T00:25:36.455Z,10.75
2023-02-19T00:28:02.868Z,10.78
2023-02-19T00:30:30.695Z,10.72
2023-02-19T00:32:56.978Z,10.79
2023-02-19T00:35:23.297Z,10.78
2023-02-19T00:37:50.148Z,10.73
2023-02-19T00:40:16.660Z,10.74
2023-02-19T00:42:42.937Z,10.74
2023-02-19T00:45:09.219Z,10.67
2023-02-19T00:47:37.123Z,10.71
2023-02-19T00:50:03.527Z,10.72
2023-02-19T00:52:29.883Z,10.77
2023-02-19T00:54:56.157Z,10.75
2023-02-19T00:57:22.462Z,10.82
2023-02-19T00:59:48.831Z,10.81
2023-02-19T01:02:15.241Z,10.92
2023-02-19T01:04:42.992Z,10.83
2023-02-19T01:07:10.184Z,10.76
2023-02-19T01:09:36.632Z,10.80
2023-02-19T01:12:03.023Z,10.78
2023-02-19T01:14:29.309Z,10.73
2023-02-19T01:16:55.613Z,10.77
2023-02-19T01:19:21.954Z,10.69
2023-02-19T01:21:49.642Z,10.71
2023-02-19T01:24:15.977Z,10.70
2023-02-19T01:26:42.670Z,10.77
2023-02-19T01:29:09.267Z,10.77
2023-02-19T01:31:35.905Z,10.74
2023-02-19T01:34:03.268Z,10.78
2023-02-19T01:36:32.014Z,10.78
2023-02-19T01:39:00.938Z,10.77
2023-02-19T01:41:27.315Z,10.70
2023-02-19T01:43:55.828Z,10.74
2023-02-19T01:46:24.972Z,10.73
2023-02-19T01:48:51.607Z,10.72
2023-02-19T01:51:19.819Z,10.78
2023-02-19T01:53:49.678Z,10.71
2023-02-19T01:56:18.632Z,10.64
2023-02-19T01:58:45.054Z,10.75
2023-02-19T02:01:11.845Z,10.80
2023-02-19T02:03:40.422Z,10.89
2023-02-19T02:06:08.887Z,10.77
2023-02-19T02:08:35.221Z,10.81
2023-02-19T02:11:01.988Z,10.87
2023-02-19T02:13:29.791Z,10.77
2023-02-19T02:16:00.634Z,10.76
2023-02-19T02:18:31.095Z,10.73
2023-02-19T02:21:18.462Z,10.84
2023-02-19T02:23:53.256Z,10.79
2023-02-19T02:26:25.627Z,10.79
2023-02-19T02:29:06.800Z,10.79
2023-02-19T02:31:39.204Z,10.73
2023-02-19T02:34:07.557Z,10.74
2023-02-19T02:36:36.080Z,10.74
2023-02-19T02:39:03.166Z,10.79
2023-02-19T02:41:29.492Z,10.81
2023-02-19T02:43:55.774Z,10.83
2023-02-19T02:46:24.397Z,10.83
2023-02-19T02:48:53.390Z,10.76
2023-02-19T02:51:21.416Z,10.78
2023-02-19T02:53:49.210Z,10.84
2023-02-19T02:56:15.966Z,10.83
2023-02-19T02:58:43.384Z,10.75
2023-02-19T03:01:12.018Z,10.78
2023-02-19T03:03:39.767Z,10.84
2023-02-19T03:06:09.039Z,10.91
2023-02-19T03:08:38.024Z,10.79
2023-02-19T03:11:05.936Z,10.78
2023-02-19T03:13:35.947Z,10.79
2023-02-19T03:16:06.935Z,10.76
2023-02-19T03:18:34.469Z,10.63
2023-02-19T03:21:01.534Z,10.62
2023-02-19T03:23:30.937Z,10.57
2023-02-19T03:25:57.237Z,10.53
2023-02-19T03:28:25.155Z,10.55
2023-02-19T03:30:53.527Z,10.46
2023-02-19T03:33:22.253Z,10.56
2023-02-19T03:35:51.536Z,10.50
2023-02-19T03:38:20.635Z,10.39
2023-02-19T03:40:52.665Z,10.40
2023-02-19T03:43:21.188Z,10.46
2023-02-19T03:45:53.159Z,10.26
2023-02-19T03:48:26.129Z,10.31
2023-02-19T03:50:58.889Z,10.18
2023-02-19T03:53:28.397Z,10.33
2023-02-19T03:56:02.530Z,10.24
2023-02-19T03:58:32.347Z,10.24
2023-02-19T04:01:02.840Z,10.20
2023-02-19T04:03:31.270Z,10.30
2023-02-19T04:06:01.121Z,10.26
2023-02-19T04:08:28.239Z,10.26
2023-02-19T04:10:55.163Z,10.17
2023-02-19T04:13:26.088Z,10.25
2023-02-19T04:15:54.142Z,10.24
2023-02-19T04:18:22.769Z,10.25
2023-02-19T04:20:49.244Z,10.33
2023-02-19T04:23:17.576Z,10.29
2023-02-19T04:25:44.961Z,10.22
2023-02-19T04:28:13.112Z,10.17
2023-02-19T04:30:41.007Z,10.33
2023-02-19T04:33:07.435Z,10.15
2023-02-19T04:35:33.778Z,10.16
2023-02-19T04:38:00.130Z,10.18
2023-02-19T04:40:26.470Z,10.09
2023-02-19T04:42:52.847Z,10.13
2023-02-19T04:45:19.138Z,10.12
2023-02-19T04:47:46.813Z,10.07
2023-02-19T04:50:13.156Z,10.01
2023-02-19T04:52:39.442Z,10.08
2023-02-19T04:55:06.529Z,10.14
2023-02-19T04:57:32.852Z,10.13
2023-02-19T04:59:59.190Z,10.15
2023-02-19T05:02:25.606Z,10.13
2023-02-19T05:04:53.269Z,10.14
2023-02-19T05:07:19.588Z,10.20
2023-02-19T05:09:45.894Z,10.28
2023-02-19T05:12:12.205Z,10.14
2023-02-19T05:14:38.527Z,10.09
2023-02-19T05:17:04.853Z,10.20
2023-02-19T05:19:31.164Z,10.15
2023-02-19T05:21:58.792Z,10.06
2023-02-19T05:24:25.114Z,10.06
2023-02-19T05:26:51.418Z,10.02
2023-02-19T05:29:17.716Z,10.07
2023-02-19T05:31:44.292Z,10.09
2023-02-19T05:34:10.803Z,9.96
2023-02-19T05:36:37.347Z,9.88
2023-02-19T05:39:05.000Z,9.91
2023-02-19T05:41:31.405Z,9.90
2023-02-19T05:43:58.062Z,9.81
2023-02-19T05:46:25.698Z,9.77
2023-02-19T05:48:52.987Z,9.75
2023-02-19T05:51:20.638Z,9.81
2023-02-19T05:53:47.326Z,9.72
2023-02-19T05:56:23.930Z,9.70
2023-02-19T05:58:50.307Z,9.75
2023-02-19T06:01:17.012Z,9.73
2023-02-19T06:03:43.368Z,9.72
2023-02-19T06:06:10.069Z,9.73
2023-02-19T06:08:36.384Z,9.76
2023-02-19T06:11:02.715Z,9.74
2023-02-19T06:13:30.426Z,9.71
2023-02-19T06:15:56.897Z,9.77
2023-02-19T06:18:23.294Z,9.64
2023-02-19T06:20:49.626Z,9.69
2023-02-19T06:23:15.962Z,9.72
2023-02-19T06:25:42.280Z,9.81
2023-02-19T06:28:08.587Z,9.72
2023-02-19T06:30:36.356Z,9.62
2023-02-19T06:33:02.834Z,9.58
2023-02-19T06:35:29.154Z,9.69
2023-02-19T06:37:55.490Z,9.64
2023-02-19T06:40:21.848Z,9.59
2023-02-19T06:42:48.193Z,9.56
2023-02-19T06:45:14.548Z,9.56
2023-02-19T06:47:42.179Z,9.55
2023-02-19T06:50:08.526Z,9.62
2023-02-19T06:52:34.857Z,9.65
2023-02-19T06:55:01.204Z,9.67
2023-02-19T06:57:27.592Z,9.64
2023-02-19T06:59:53.887Z,9.61
2023-02-19T07:02:20.204Z,9.56
2023-02-19T07:04:47.890Z,9.61
2023-02-19T07:07:14.203Z,9.63
2023-02-19T07:09:40.510Z,9.65
2023-02-19T07:12:07.028Z,9.65
2023-02-19T07:14:33.407Z,9.67
2023-02-19T07:16:59.695Z,9.62
2023-02-19T07:19:26.005Z,9.62
2023-02-19T07:21:53.701Z,9.64
2023-02-19T07:24:20.080Z,9.62
2023-02-19T07:26:46.406Z,9.76
2023-02-19T07:29:12.720Z,9.79
2023-02-19T07:31:39.158Z,9.80
2023-02-19T07:34:06.686Z,9.84
2023-02-19T07:36:32.979Z,9.78
2023-02-19T07:39:00.751Z,9.75
2023-02-19T07:41:27.190Z,9.75
2023-02-19T07:43:53.948Z,9.74
2023-02-19T07:46:20.578Z,9.83
2023-02-19T07:48:46.859Z,9.76
2023-02-19T07:51:14.395Z,9.84
2023-02-19T07:53:40.723Z,9.88
2023-02-19T07:56:08.549Z,9.79
2023-02-19T07:58:35.438Z,9.78
2023-02-19T08:01:06.959Z,9.89
2023-02-19T08:03:33.352Z,9.72
2023-02-19T08:05:59.707Z,9.71
2023-02-19T08:08:26.002Z,9.69
2023-02-19T08:10:52.323Z,9.60
2023-02-19T08:13:20.622Z,9.68
2023-02-19T08:15:47.099Z,9.63
2023-02-19T08:18:14.499Z,9.69
2023-02-19T08:20:40.849Z,9.63
2023-02-19T08:23:07.162Z,9.66
2023-02-19T08:25:33.461Z,9.62
2023-02-19T08:27:59.817Z,9.66
2023-02-19T08:30:27.776Z,9.53
2023-02-19T08:32:54.593Z,9.52
2023-02-19T08:35:21.102Z,9.55
2023-02-19T08:37:47.453Z,9.60
2023-02-19T08:40:13.747Z,9.57
2023-02-19T08:42:40.051Z,9.56
2023-02-19T08:45:06.696Z,9.59
2023-02-19T08:47:35.848Z,9.53
2023-02-19T08:50:02.216Z,9.58
2023-02-19T08:52:28.547Z,9.70
2023-02-19T08:54:54.839Z,9.77
2023-02-19T08:57:21.222Z,9.77
2023-02-19T08:59:47.506Z,9.72
2023-02-19T09:02:13.808Z,9.77
2023-02-19T09:04:41.449Z,9.80
2023-02-19T09:07:07.924Z,9.83
2023-02-19T09:09:36.349Z,9.84
2023-02-19T09:12:04.058Z,9.91
2023-02-19T09:14:31.591Z,10.03
2023-02-19T09:16:57.926Z,10.05
2023-02-19T09:19:24.340Z,10.06
2023-02-19T09:21:51.974Z,10.15
2023-02-19T09:24:18.259Z,10.18
2023-02-19T09:26:44.584Z,10.24
2023-02-19T09:29:10.903Z,10.32
2023-02-19T09:31:37.290Z,10.38
2023-02-19T09:34:03.640Z,10.43
2023-02-19T09:36:29.958Z,10.41
2023-02-19T09:38:57.587Z,10.38
2023-02-19T09:41:26.036Z,10.44
2023-02-19T09:43:52.342Z,10.52
2023-02-19T09:46:24.000Z,10.52
2023-02-19T09:48:51.490Z,10.46
2023-02-19T09:51:17.820Z,10.49
2023-02-19T09:53:47.261Z,10.51
2023-02-19T09:56:15.245Z,10.45
2023-02-19T09:58:43.752Z,10.41
2023-02-19T10:01:11.725Z,10.32
2023-02-19T10:03:39.172Z,10.32
2023-02-19T10:06:09.384Z,10.39
2023-02-19T10:08:37.264Z,10.36
2023-02-19T10:11:04.525Z,10.52
2023-02-19T10:13:34.348Z,10.55
2023-02-19T10:16:01.725Z,10.58
2023-02-19T10:18:29.959Z,10.57
2023-02-19T10:20:56.871Z,10.69
2023-02-19T10:23:24.325Z,10.74
2023-02-19T10:25:53.130Z,10.83
2023-02-19T10:28:21.628Z,10.88
2023-02-19T10:30:51.308Z,10.94
2023-02-19T10:33:17.618Z,10.92
2023-02-19T10:35:52.124Z,11.03
2023-02-19T10:38:18.950Z,11.20
2023-02-19T10:40:45.986Z,11.10
2023-02-19T10:43:20.111Z,11.10
2023-02-19T10:45:47.658Z,11.04
2023-02-19T10:48:22.316Z,11.08
2023-02-19T10:50:51.406Z,11.03
2023-02-19T10:53:21.006Z,11.13
2023-02-19T10:55:47.326Z,10.99
2023-02-19T10:58:23.580Z,11.04
2023-02-19T11:01:09.289Z,11.08
2023-02-19T11:03:37.415Z,11.09
2023-02-19T11:06:04.986Z,11.01
2023-02-19T11:08:32.775Z,11.03
2023-02-19T11:10:59.122Z,10.98
2023-02-19T11:13:28.297Z,11.06
2023-02-19T11:15:55.103Z,10.87
2023-02-19T11:18:22.712Z,11.00
2023-02-19T11:20:51.503Z,11.12
2023-02-19T11:23:20.753Z,10.93
2023-02-19T11:25:48.495Z,10.87
2023-02-19T11:28:22.723Z,10.84
2023-02-19T11:30:49.150Z,10.82
2023-02-19T11:33:20.488Z,10.90
2023-02-19T11:35:46.957Z,11.00
2023-02-19T11:38:15.456Z,11.06
2023-02-19T11:40:44.479Z,11.14
2023-02-19T11:43:16.694Z,11.29
2023-02-19T11:45:47.795Z,11.44
2023-02-19T11:48:20.484Z,11.53
2023-02-19T11:50:51.895Z,11.47
2023-02-19T11:53:24.801Z,11.42
2023-02-19T11:55:56.448Z,11.21
2023-02-19T11:58:36.822Z,11.38
2023-02-19T12:01:08.297Z,11.40
2023-02-19T12:03:42.745Z,11.49
2023-02-19T12:06:23.150Z,11.59
2023-02-19T12:09:16.718Z,11.59
2023-02-19T12:11:50.292Z,11.63
2023-02-19T12:14:24.821Z,11.53
2023-02-19T12:16:54.775Z,11.59
2023-02-19T12:19:28.303Z,11.53
2023-02-19T12:22:02.804Z,11.53
2023-02-19T12:24:45.430Z,11.46
2023-02-19T12:27:19.224Z,11.46
2023-02-19T12:29:51.875Z,11.63
2023-02-19T12:32:35.882Z,11.60
2023-02-19T12:35:18.671Z,11.63
2023-02-19T12:37:48.547Z,11.70
2023-02-19T12:40:22.451Z,11.62
2023-02-19T12:42:57.093Z,11.66
2023-02-19T12:45:26.834Z,11.73
2023-02-19T12:47:57.524Z,11.70
2023-02-19T12:50:25.230Z,11.63
2023-02-19T12:52:55.165Z,11.58
2023-02-19T12:55:22.845Z,11.48
2023-02-19T12:57:50.585Z,11.53
2023-02-19T13:00:25.448Z,11.58
2023-02-19T13:02:55.988Z,11.49
2023-02-19T13:05:26.772Z,11.34
2023-02-19T13:07:57.513Z,11.22
2023-02-19T13:10:27.138Z,11.11
2023-02-19T13:12:55.122Z,11.11
2023-02-19T13:15:31.413Z,11.09
2023-02-19T13:18:01.392Z,11.21
2023-02-19T13:20:30.832Z,11.17
2023-02-19T13:22:59.933Z,11.23
2023-02-19T13:25:30.671Z,11.26
2023-02-19T13:28:06.003Z,11.35
2023-02-19T13:30:50.483Z,11.38
2023-02-19T13:33:26.022Z,11.28
2023-02-19T13:35:59.139Z,11.21
2023-02-19T13:38:25.720Z,11.20
2023-02-19T13:40:56.437Z,11.24
2023-02-19T13:43:24.584Z,11.28
2023-02-19T13:45:55.079Z,11.42
2023-02-19T13:48:28.137Z,11.35
2023-02-19T13:51:09.706Z,11.40
2023-02-19T13:53:49.646Z,11.48
2023-02-19T13:56:34.795Z,11.51
2023-02-19T13:59:13.562Z,11.41
2023-02-19T14:02:09.357Z,11.37
2023-02-19T14:04:45.024Z,11.30
2023-02-19T14:07:21.800Z,11.26
2023-02-19T14:09:48.118Z,11.15
2023-02-19T14:12:18.649Z,11.15
2023-02-19T14:14:45.329Z,11.08
2023-02-19T14:17:26.593Z,10.94
2023-02-19T14:19:55.280Z,10.97
2023-02-19T14:22:40.153Z,11.11
2023-02-19T14:25:08.088Z,10.85
2023-02-19T14:27:34.456Z,10.79
2023-02-19T14:30:00.940Z,10.97
2023-02-19T14:32:27.311Z,10.90
2023-02-19T14:34:55.510Z,11.03
2023-02-19T14:37:22.314Z,10.79
2023-02-19T14:39:48.818Z,10.72
2023-02-19T14:42:16.437Z,10.69
2023-02-19T14:44:46.627Z,10.54
2023-02-19T14:47:14.394Z,10.65
2023-02-19T14:49:42.410Z,10.64
2023-02-19T14:52:14.519Z,10.66
2023-02-19T14:54:42.699Z,10.58
2023-02-19T14:57:12.550Z,10.62
2023-02-19T14:59:38.870Z,10.23
2023-02-19T15:02:13.927Z,10.14
2023-02-19T15:04:40.276Z,10.11
2023-02-19T15:07:08.304Z,10.09
2023-02-19T15:09:39.275Z,9.98
2023-02-19T15:12:06.113Z,10.00
2023-02-19T15:14:32.890Z,9.96
2023-02-19T15:17:01.022Z,9.92
2023-02-19T15:19:28.061Z,9.79
2023-02-19T15:21:54.569Z,9.81
2023-02-19T15:24:21.191Z,9.72
2023-02-19T15:26:50.000Z,9.75
2023-02-19T15:29:17.517Z,9.82
2023-02-19T15:31:47.568Z,9.74
2023-02-19T15:34:15.625Z,9.60
2023-02-19T15:36:41.987Z,9.65
2023-02-19T15:39:16.693Z,9.60
2023-02-19T15:41:43.033Z,9.50
2023-02-19T15:44:19.555Z,9.48
2023-02-19T15:46:46.236Z,9.59
2023-02-19T15:49:14.160Z,9.51
2023-02-19T15:51:43.120Z,9.44
2023-02-19T15:54:14.897Z,9.41
2023-02-19T15:56:44.010Z,9.41
2023-02-19T15:59:17.466Z,9.29
2023-02-19T16:01:44.228Z,9.32
2023-02-19T16:04:11.436Z,9.29
2023-02-19T16:06:50.566Z,9.37
2023-02-19T16:09:19.934Z,9.41
2023-02-19T16:11:49.593Z,9.34
2023-02-19T16:14:18.677Z,9.24
2023-02-19T16:16:46.599Z,9.23
2023-02-19T16:19:13.167Z,9.27
2023-02-19T16:21:43.286Z,9.28
2023-02-19T16:24:13.798Z,9.16
2023-02-19T16:26:40.236Z,9.23
2023-02-19T16:29:16.626Z,9.20
2023-02-19T16:31:49.009Z,9.16
2023-02-19T16:34:16.525Z,9.26
2023-02-19T16:36:42.877Z,9.22
2023-02-19T16:39:22.444Z,9.07
2023-02-19T16:42:15.933Z,8.95
2023-02-19T16:44:43.199Z,8.92
2023-02-19T16:47:20.157Z,8.96
2023-02-19T16:49:46.485Z,8.89
2023-02-19T16:52:14.730Z,8.70
2023-02-19T16:54:41.131Z,8.76
2023-02-19T16:57:07.599Z,8.77
2023-02-19T16:59:33.927Z,8.73
2023-02-19T17:02:00.253Z,8.60
2023-02-19T17:04:27.909Z,8.69
2023-02-19T17:06:54.260Z,8.64
2023-02-19T17:09:20.590Z,8.62
2023-02-19T17:11:46.957Z,8.65
2023-02-19T17:14:15.026Z,8.62
2023-02-19T17:16:41.355Z,8.58
2023-02-19T17:19:10.336Z,8.56
2023-02-19T17:21:38.012Z,8.56
2023-02-19T17:24:04.550Z,8.57
2023-02-19T17:26:32.226Z,8.57
2023-02-19T17:28:59.005Z,8.52
2023-02-19T17:31:25.473Z,8.58
2023-02-19T17:33:51.870Z,8.63
2023-02-19T17:36:19.106Z,8.66
2023-02-19T17:38:46.773Z,8.63
2023-02-19T17:41:13.223Z,8.62
2023-02-19T17:43:39.608Z,8.55
2023-02-19T17:46:06.018Z,8.56
2023-02-19T17:48:32.388Z,8.56
2023-02-19T17:50:58.686Z,8.60
2023-02-19T17:53:24.967Z,8.47
2023-02-19T17:55:52.618Z,8.42
2023-02-19T17:58:18.916Z,8.43
2023-02-19T18:00:45.241Z,8.37
2023-02-19T18:03:11.581Z,8.29
2023-02-19T18:05:37.891Z,8.19
2023-02-19T18:08:04.231Z,8.23
2023-02-19T18:10:30.557Z,8.12
2023-02-19T18:12:58.805Z,8.02
2023-02-19T18:15:25.988Z,7.97
2023-02-19T18:17:52.302Z,7.88
2023-02-19T18:20:19.719Z,7.83
2023-02-19T18:22:46.002Z,7.82
2023-02-19T18:25:12.482Z,7.84
2023-02-19T18:27:38.813Z,7.80
2023-02-19T18:30:07.619Z,7.75
2023-02-19T18:32:33.988Z,7.76
2023-02-19T18:35:00.316Z,7.74
2023-02-19T18:37:27.507Z,7.77
2023-02-19T18:39:53.990Z,7.79
2023-02-19T18:42:21.645Z,7.76
2023-02-19T18:44:49.246Z,7.76
2023-02-19T18:47:16.980Z,7.73
2023-02-19T18:49:45.257Z,7.74
2023-02-19T18:52:11.543Z,7.66
2023-02-19T18:54:37.911Z,7.75
2023-02-19T18:57:04.247Z,7.68
2023-02-19T18:59:30.788Z,7.66
2023-02-19T19:01:57.464Z,7.67
2023-02-19T19:04:25.164Z,7.57
2023-02-19T19:06:51.514Z,7.63
2023-02-19T19:09:17.850Z,7.48
2023-02-19T19:11:44.157Z,7.47
2023-02-19T19:14:10.495Z,7.36
2023-02-19T19:16:36.829Z,7.31
2023-02-19T19:19:03.310Z,7.29
2023-02-19T19:21:31.360Z,7.27
2023-02-19T19:23:57.646Z,7.23
2023-02-19T19:26:23.978Z,7.19
2023-02-19T19:28:50.278Z,7.21
2023-02-19T19:31:17.774Z,7.12
2023-02-19T19:33:44.205Z,7.09
2023-02-19T19:36:11.204Z,6.99
2023-02-19T19:38:38.980Z,7.07
2023-02-19T19:41:05.342Z,6.97
2023-02-19T19:43:32.381Z,6.93
2023-02-19T19:45:59.324Z,6.85
2023-02-19T19:48:26.037Z,6.84
2023-02-19T19:50:52.353Z,6.75
2023-02-19T19:53:18.699Z,6.74
2023-02-19T19:55:46.413Z,6.76
2023-02-19T19:58:12.723Z,6.75
2023-02-19T20:00:39.009Z,6.74
2023-02-19T20:03:05.308Z,6.74
2023-02-19T20:05:31.626Z,6.71
2023-02-19T20:07:57.961Z,6.68
2023-02-19T20:10:24.277Z,6.67
2023-02-19T20:12:51.921Z,6.67
2023-02-19T20:15:20.138Z,6.63
2023-02-19T20:17:46.452Z,6.59
2023-02-19T20:20:13.072Z,6.58
2023-02-19T20:22:39.527Z,6.58
2023-02-19T20:25:06.083Z,6.52
2023-02-19T20:27:32.404Z,6.48
2023-02-19T20:30:00.033Z,6.50
2023-02-19T20:32:26.334Z,6.45
2023-02-19T20:34:52.661Z,6.39
2023-02-19T20:37:18.991Z,6.39
2023-02-19T20:39:45.307Z,6.34
2023-02-19T20:42:11.641Z,6.31
2023-02-19T20:44:37.951Z,6.27
2023-02-19T20:47:06.318Z,6.19
2023-02-19T20:49:32.611Z,6.21
2023-02-19T20:52:00.183Z,6.18
2023-02-19T20:54:27.692Z,6.18
2023-02-19T20:56:55.481Z,6.19
2023-02-19T20:59:23.127Z,6.18
2023-02-19T21:01:49.653Z,6.18
2023-02-19T21:04:17.357Z,6.15
2023-02-19T21:06:43.638Z,6.11
2023-02-19T21:09:10.070Z,6.07
2023-02-19T21:11:36.416Z,6.02
2023-02-19T21:14:02.760Z,6.00
2023-02-19T21:16:30.113Z,5.94
2023-02-19T21:18:56.678Z,5.93
2023-02-19T21:21:24.911Z,5.89
2023-02-19T21:23:51.270Z,5.86
2023-02-19T21:26:17.864Z,5.83
2023-02-19T21:28:44.201Z,5.79
2023-02-19T21:31:10.675Z,5.77
2023-02-19T21:33:37.085Z,5.78
2023-02-19T21:36:03.565Z,5.74
2023-02-19T21:38:32.715Z,5.73
2023-02-19T21:40:59.077Z,5.73
2023-02-19T21:43:25.364Z,5.71
2023-02-19T21:45:51.691Z,5.70
2023-02-19T21:48:18.019Z,5.69
2023-02-19T21:50:44.455Z,5.70
2023-02-19T21:53:10.760Z,5.69
2023-02-19T21:55:38.618Z,5.67
2023-02-19T21:58:06.144Z,5.67
2023-02-19T22:00:32.473Z,5.63
2023-02-19T22:02:58.931Z,5.61
2023-02-19T22:05:25.456Z,5.63
2023-02-19T22:07:51.782Z,5.62
2023-02-19T22:10:18.084Z,5.61
2023-02-19T22:12:45.819Z,5.60
2023-02-19T22:15:12.515Z,5.61
2023-02-19T22:17:38.829Z,5.60
2023-02-19T22:20:05.988Z,5.61
2023-02-19T22:22:32.287Z,5.60
2023-02-19T22:24:58.568Z,5.58
2023-02-19T22:27:24.839Z,5.58
2023-02-19T22:29:52.530Z,5.57
2023-02-19T22:32:18.966Z,5.58
2023-02-19T22:34:45.320Z,5.56
2023-02-19T22:37:11.668Z,5.53
2023-02-19T22:39:37.994Z,5.55
2023-02-19T22:42:04.487Z,5.55
2023-02-19T22:44:30.792Z,5.54
2023-02-19T22:46:58.417Z,5.54
2023-02-19T22:49:24.777Z,5.52
2023-02-19T22:51:53.431Z,5.52
2023-02-19T22:54:19.733Z,5.52
2023-02-19T22:56:46.001Z,5.53
2023-02-19T22:59:12.352Z,5.52
2023-02-19T23:01:38.986Z,5.52
2023-02-19T23:04:06.654Z,5.52
2023-02-19T23:06:34.038Z,5.52
2023-02-19T23:09:03.131Z,5.49
2023-02-19T23:11:30.957Z,5.47
2023-02-19T23:13:57.738Z,5.44
2023-02-19T23:16:24.157Z,5.43
2023-02-19T23:18:50.502Z,5.40
2023-02-19T23:21:19.222Z,5.42
2023-02-19T23:23:46.007Z,5.42
2023-02-19T23:26:13.183Z,5.43
2023-02-19T23:28:40.106Z,5.42
2023-02-19T23:31:06.557Z,5.42
2023-02-19T23:33:33.004Z,5.43
2023-02-19T23:35:59.386Z,5.40
2023-02-19T23:38:27.014Z,5.42
2023-02-19T23:40:53.335Z,5.42
2023-02-19T23:43:19.689Z,5.36
2023-02-19T23:45:46.132Z,5.43
2023-02-19T23:48:12.497Z,5.41
2023-02-19T23:50:38.773Z,5.40
2023-02-19T23:53:05.096Z,5.42
2023-02-19T23:55:32.749Z,5.48
2023-02-19T23:57:59.094Z,5.49
